sensor_id;sensor_type;location;lat;lon;timestamp;pressure;altitude;pressure_sealevel;temperature;humidity
5298;BME280;14738;42.668;23.250;2024-03-06T00:00:45;48517.34;;;-141.90;100.00
5298;BME280;14738;42.668;23.250;2024-03-06T00:03:10;48507.44;;;-141.90;100.00
5298;BME280;14738;42.668;23.250;2024-03-06T00:05:36;48529.28;;;-141.90;100.00
5298;BME280;14738;42.668;23.250;2024-03-06T00:08:01;48527.28;;;-141.90;100.00
5298;BME280;14738;42.668;23.250;2024-03-06T00:10:29;48545.16;;;-141.90;100.00
5298;BME280;14738;42.668;23.250;2024-03-06T00:12:54;48547.13;;;-141.90;100.00
5298;BME280;14738;42.668;23.250;2024-03-06T00:15:19;48541.19;;;-141.90;100.00
5298;BME280;14738;42.668;23.250;2024-03-06T00:17:45;48533.25;;;-141.90;100.00
5298;BME280;14738;42.668;23.250;2024-03-06T00:20:11;48525.31;;;-141.90;100.00
5298;BME280;14738;42.668;23.250;2024-03-06T00:22:36;48561.03;;;-141.90;100.00
5298;BME280;14738;42.668;23.250;2024-03-06T00:25:02;48545.16;;;-141.90;100.00
5298;BME280;14738;42.668;23.250;2024-03-06T00:27:28;48537.22;;;-141.90;100.00
5298;BME280;14738;42.668;23.250;2024-03-06T00:29:53;48533.25;;;-141.90;100.00
5298;BME280;14738;42.668;23.250;2024-03-06T00:32:19;48561.03;;;-141.90;100.00
5298;BME280;14738;42.668;23.250;2024-03-06T00:34:44;48541.19;;;-141.90;100.00
5298;BME280;14738;42.668;23.250;2024-03-06T00:37:09;48519.34;;;-141.90;100.00
5298;BME280;14738;42.668;23.250;2024-03-06T00:39:35;48501.47;;;-141.90;100.00
5298;BME280;14738;42.668;23.250;2024-03-06T00:42:00;48517.34;;;-141.90;100.00
5298;BME280;14738;42.668;23.250;2024-03-06T00:44:26;48557.06;;;-141.90;100.00
5298;BME280;14738;42.668;23.250;2024-03-06T00:46:51;48553.09;;;-141.90;100.00
5298;BME280;14738;42.668;23.250;2024-03-06T00:49:17;48570.97;;;-141.90;100.00
5298;BME280;14738;42.668;23.250;2024-03-06T00:51:42;48557.06;;;-141.90;100.00
5298;BME280;14738;42.668;23.250;2024-03-06T00:54:07;48551.09;;;-141.90;100.00
5298;BME280;14738;42.668;23.250;2024-03-06T00:56:37;48568.97;;;-141.90;100.00
5298;BME280;14738;42.668;23.250;2024-03-06T00:59:03;48565.00;;;-141.90;100.00
5298;BME280;14738;42.668;23.250;2024-03-06T01:01:28;48527.28;;;-141.90;100.00
5298;BME280;14738;42.668;23.250;2024-03-06T01:03:54;48584.84;;;-141.90;100.00
5298;BME280;14738;42.668;23.250;2024-03-06T01:06:20;48568.97;;;-141.90;100.00
5298;BME280;14738;42.668;23.250;2024-03-06T01:08:46;48553.09;;;-141.90;100.00
5298;BME280;14738;42.668;23.250;2024-03-06T01:11:11;48541.19;;;-141.90;100.00
5298;BME280;14738;42.668;23.250;2024-03-06T01:13:39;48572.94;;;-141.90;100.00
5298;BME280;14738;42.668;23.250;2024-03-06T01:16:05;48561.03;;;-141.90;100.00
5298;BME280;14738;42.668;23.250;2024-03-06T01:18:31;48576.91;;;-141.90;100.00
5298;BME280;14738;42.668;23.250;2024-03-06T01:20:56;48557.06;;;-141.90;100.00
5298;BME280;14738;42.668;23.250;2024-03-06T01:23:22;48557.06;;;-141.90;100.00
5298;BME280;14738;42.668;23.250;2024-03-06T01:25:47;48541.19;;;-141.90;100.00
5298;BME280;14738;42.668;23.250;2024-03-06T01:28:13;48545.16;;;-141.90;100.00
5298;BME280;14738;42.668;23.250;2024-03-06T01:30:38;48549.13;;;-141.90;100.00
5298;BME280;14738;42.668;23.250;2024-03-06T01:33:03;48561.03;;;-141.90;100.00
5298;BME280;14738;42.668;23.250;2024-03-06T01:35:30;48553.09;;;-141.90;100.00
5298;BME280;14738;42.668;23.250;2024-03-06T01:37:55;48545.16;;;-141.90;100.00
5298;BME280;14738;42.668;23.250;2024-03-06T01:40:21;48547.13;;;-141.90;100.00
5298;BME280;14738;42.668;23.250;2024-03-06T01:42:47;48545.16;;;-141.90;100.00
5298;BME280;14738;42.668;23.250;2024-03-06T01:45:14;48545.16;;;-141.90;100.00
5298;BME280;14738;42.668;23.250;2024-03-06T01:47:39;48551.09;;;-141.90;100.00
5298;BME280;14738;42.668;23.250;2024-03-06T01:50:05;48576.91;;;-141.90;100.00
5298;BME280;14738;42.668;23.250;2024-03-06T01:52:34;48529.28;;;-141.90;100.00
5298;BME280;14738;42.668;23.250;2024-03-06T01:55:00;48541.19;;;-141.90;100.00
5298;BME280;14738;42.668;23.250;2024-03-06T01:57:26;48561.03;;;-141.90;100.00
5298;BME280;14738;42.668;23.250;2024-03-06T01:59:53;48535.22;;;-141.90;100.00
5298;BME280;14738;42.668;23.250;2024-03-06T02:02:19;48553.09;;;-141.90;100.00
5298;BME280;14738;42.668;23.250;2024-03-06T02:04:45;48553.09;;;-141.90;100.00
5298;BME280;14738;42.668;23.250;2024-03-06T02:07:12;48561.03;;;-141.90;100.00
5298;BME280;14738;42.668;23.250;2024-03-06T02:09:39;48533.25;;;-141.90;100.00
5298;BME280;14738;42.668;23.250;2024-03-06T02:12:05;48557.06;;;-141.90;100.00
5298;BME280;14738;42.668;23.250;2024-03-06T02:14:31;48547.13;;;-141.90;100.00
5298;BME280;14738;42.668;23.250;2024-03-06T02:16:56;48533.25;;;-141.90;100.00
5298;BME280;14738;42.668;23.250;2024-03-06T02:19:21;48521.34;;;-141.90;100.00
5298;BME280;14738;42.668;23.250;2024-03-06T02:21:47;48561.03;;;-141.90;100.00
5298;BME280;14738;42.668;23.250;2024-03-06T02:24:13;48557.06;;;-141.90;100.00
5298;BME280;14738;42.668;23.250;2024-03-06T02:26:39;48533.25;;;-141.90;100.00
5298;BME280;14738;42.668;23.250;2024-03-06T02:29:06;48529.28;;;-141.90;100.00
5298;BME280;14738;42.668;23.250;2024-03-06T02:31:32;48549.13;;;-141.90;100.00
5298;BME280;14738;42.668;23.250;2024-03-06T02:33:58;48549.13;;;-141.90;100.00
5298;BME280;14738;42.668;23.250;2024-03-06T02:36:24;48549.13;;;-141.90;100.00
5298;BME280;14738;42.668;23.250;2024-03-06T02:38:49;48543.16;;;-141.90;100.00
5298;BME280;14738;42.668;23.250;2024-03-06T02:41:15;48553.09;;;-141.90;100.00
5298;BME280;14738;42.668;23.250;2024-03-06T02:43:41;48568.97;;;-141.90;100.00
5298;BME280;14738;42.668;23.250;2024-03-06T02:46:07;48545.16;;;-141.90;100.00
5298;BME280;14738;42.668;23.250;2024-03-06T02:48:32;48574.94;;;-141.90;100.00
5298;BME280;14738;42.668;23.250;2024-03-06T02:50:58;48551.09;;;-141.90;100.00
5298;BME280;14738;42.668;23.250;2024-03-06T02:53:23;48574.94;;;-141.90;100.00
5298;BME280;14738;42.668;23.250;2024-03-06T02:55:50;48565.00;;;-141.90;100.00
5298;BME280;14738;42.668;23.250;2024-03-06T02:58:16;48572.94;;;-141.90;100.00
5298;BME280;14738;42.668;23.250;2024-03-06T03:00:44;48584.84;;;-141.90;100.00
5298;BME280;14738;42.668;23.250;2024-03-06T03:03:10;48547.13;;;-141.90;100.00
5298;BME280;14738;42.668;23.250;2024-03-06T03:05:39;48580.88;;;-141.90;100.00
5298;BME280;14738;42.668;23.250;2024-03-06T03:08:06;48592.81;;;-141.90;100.00
5298;BME280;14738;42.668;23.250;2024-03-06T03:10:31;48568.97;;;-141.90;100.00
5298;BME280;14738;42.668;23.250;2024-03-06T03:12:59;48565.00;;;-141.90;100.00
5298;BME280;14738;42.668;23.250;2024-03-06T03:15:25;48588.84;;;-141.90;100.00
5298;BME280;14738;42.668;23.250;2024-03-06T03:17:50;48549.13;;;-141.90;100.00
5298;BME280;14738;42.668;23.250;2024-03-06T03:20:16;48531.25;;;-141.90;100.00
5298;BME280;14738;42.668;23.250;2024-03-06T03:22:42;48576.91;;;-141.90;100.00
5298;BME280;14738;42.668;23.250;2024-03-06T03:25:12;48592.81;;;-141.90;100.00
5298;BME280;14738;42.668;23.250;2024-03-06T03:27:41;48584.84;;;-141.90;100.00
5298;BME280;14738;42.668;23.250;2024-03-06T03:30:13;48565.00;;;-141.90;100.00
5298;BME280;14738;42.668;23.250;2024-03-06T03:32:38;48570.97;;;-141.90;100.00
5298;BME280;14738;42.668;23.250;2024-03-06T03:35:05;48567.00;;;-141.90;100.00
5298;BME280;14738;42.668;23.250;2024-03-06T03:37:31;48561.03;;;-141.90;100.00
5298;BME280;14738;42.668;23.250;2024-03-06T03:39:57;48570.97;;;-141.90;100.00
5298;BME280;14738;42.668;23.250;2024-03-06T03:42:22;48561.03;;;-141.90;100.00
5298;BME280;14738;42.668;23.250;2024-03-06T03:44:48;48584.84;;;-141.90;100.00
5298;BME280;14738;42.668;23.250;2024-03-06T03:47:13;48582.88;;;-141.90;100.00
5298;BME280;14738;42.668;23.250;2024-03-06T03:49:39;48557.06;;;-141.90;100.00
5298;BME280;14738;42.668;23.250;2024-03-06T03:52:04;48549.13;;;-141.90;100.00
5298;BME280;14738;42.668;23.250;2024-03-06T03:54:29;48565.00;;;-141.90;100.00
5298;BME280;14738;42.668;23.250;2024-03-06T03:56:55;48565.00;;;-141.90;100.00
5298;BME280;14738;42.668;23.250;2024-03-06T03:59:20;48565.00;;;-141.90;100.00
5298;BME280;14738;42.668;23.250;2024-03-06T04:01:45;48563.03;;;-141.90;100.00
5298;BME280;14738;42.668;23.250;2024-03-06T04:04:15;48568.97;;;-141.90;100.00
5298;BME280;14738;42.668;23.250;2024-03-06T04:06:40;48549.13;;;-141.90;100.00
5298;BME280;14738;42.668;23.250;2024-03-06T04:09:06;48574.94;;;-141.90;100.00
5298;BME280;14738;42.668;23.250;2024-03-06T04:11:37;48572.94;;;-141.90;100.00
5298;BME280;14738;42.668;23.250;2024-03-06T04:14:06;48563.03;;;-141.90;100.00
5298;BME280;14738;42.668;23.250;2024-03-06T04:16:35;48570.97;;;-141.90;100.00
5298;BME280;14738;42.668;23.250;2024-03-06T04:19:00;48580.88;;;-141.90;100.00
5298;BME280;14738;42.668;23.250;2024-03-06T04:21:26;48576.91;;;-141.90;100.00
5298;BME280;14738;42.668;23.250;2024-03-06T04:23:52;48565.00;;;-141.90;100.00
5298;BME280;14738;42.668;23.250;2024-03-06T04:26:17;48559.06;;;-141.90;100.00
5298;BME280;14738;42.668;23.250;2024-03-06T04:28:43;48557.06;;;-141.90;100.00
5298;BME280;14738;42.668;23.250;2024-03-06T04:31:09;48572.94;;;-141.90;100.00
5298;BME280;14738;42.668;23.250;2024-03-06T04:33:34;48576.91;;;-141.90;100.00
5298;BME280;14738;42.668;23.250;2024-03-06T04:36:03;48541.19;;;-141.90;100.00
5298;BME280;14738;42.668;23.250;2024-03-06T04:38:31;48541.19;;;-141.90;100.00
5298;BME280;14738;42.668;23.250;2024-03-06T04:40:56;48561.03;;;-141.90;100.00
5298;BME280;14738;42.668;23.250;2024-03-06T04:43:21;48561.03;;;-141.90;100.00
5298;BME280;14738;42.668;23.250;2024-03-06T04:45:47;48553.09;;;-141.90;100.00
5298;BME280;14738;42.668;23.250;2024-03-06T04:48:12;48559.06;;;-141.90;100.00
5298;BME280;14738;42.668;23.250;2024-03-06T04:50:38;48580.88;;;-141.90;100.00
5298;BME280;14738;42.668;23.250;2024-03-06T04:53:03;48592.81;;;-141.90;100.00
5298;BME280;14738;42.668;23.250;2024-03-06T04:55:29;48565.00;;;-141.90;100.00
5298;BME280;14738;42.668;23.250;2024-03-06T04:57:56;48568.97;;;-141.90;100.00
5298;BME280;14738;42.668;23.250;2024-03-06T05:00:21;48574.94;;;-141.90;100.00
5298;BME280;14738;42.668;23.250;2024-03-06T05:02:47;48576.91;;;-141.90;100.00
5298;BME280;14738;42.668;23.250;2024-03-06T05:05:14;48568.97;;;-141.90;100.00
5298;BME280;14738;42.668;23.250;2024-03-06T05:07:40;48565.00;;;-141.90;100.00
5298;BME280;14738;42.668;23.250;2024-03-06T05:10:06;48557.06;;;-141.90;100.00
5298;BME280;14738;42.668;23.250;2024-03-06T05:12:33;48559.06;;;-141.90;100.00
5298;BME280;14738;42.668;23.250;2024-03-06T05:14:59;48557.06;;;-141.90;100.00
5298;BME280;14738;42.668;23.250;2024-03-06T05:17:26;48527.28;;;-141.90;100.00
5298;BME280;14738;42.668;23.250;2024-03-06T05:19:51;48565.00;;;-141.90;100.00
5298;BME280;14738;42.668;23.250;2024-03-06T05:22:17;48525.31;;;-141.90;100.00
5298;BME280;14738;42.668;23.250;2024-03-06T05:24:43;48537.22;;;-141.90;100.00
5298;BME280;14738;42.668;23.250;2024-03-06T05:27:09;48501.47;;;-141.90;100.00
5298;BME280;14738;42.668;23.250;2024-03-06T05:29:35;48549.13;;;-141.90;100.00
5298;BME280;14738;42.668;23.250;2024-03-06T05:32:02;48509.41;;;-141.90;100.00
5298;BME280;14738;42.668;23.250;2024-03-06T05:34:28;48489.56;;;-141.90;100.00
5298;BME280;14738;42.668;23.250;2024-03-06T05:36:55;48511.41;;;-141.90;100.00
5298;BME280;14738;42.668;23.250;2024-03-06T05:39:21;48477.66;;;-141.90;100.00
5298;BME280;14738;42.668;23.250;2024-03-06T05:41:46;48509.41;;;-141.90;100.00
5298;BME280;14738;42.668;23.250;2024-03-06T05:44:12;48511.41;;;-141.90;100.00
5298;BME280;14738;42.668;23.250;2024-03-06T05:46:37;48483.59;;;-141.90;100.00
5298;BME280;14738;42.668;23.250;2024-03-06T05:49:02;48491.56;;;-141.90;100.00
5298;BME280;14738;42.668;23.250;2024-03-06T05:51:29;48509.41;;;-141.90;100.00
5298;BME280;14738;42.668;23.250;2024-03-06T05:53:55;48515.38;;;-141.90;100.00
5298;BME280;14738;42.668;23.250;2024-03-06T05:56:22;48501.47;;;-141.90;100.00
5298;BME280;14738;42.668;23.250;2024-03-06T05:58:47;48531.25;;;-141.90;100.00
5298;BME280;14738;42.668;23.250;2024-03-06T06:01:18;48485.59;;;-141.90;100.00
5298;BME280;14738;42.668;23.250;2024-03-06T06:03:47;48497.50;;;-141.90;100.00
5298;BME280;14738;42.668;23.250;2024-03-06T06:06:17;48517.34;;;-141.90;100.00
5298;BME280;14738;42.668;23.250;2024-03-06T06:08:44;48517.34;;;-141.90;100.00
5298;BME280;14738;42.668;23.250;2024-03-06T06:11:11;48493.53;;;-141.90;100.00
5298;BME280;14738;42.668;23.250;2024-03-06T06:13:37;48471.69;;;-141.90;100.00
5298;BME280;14738;42.668;23.250;2024-03-06T06:16:03;48499.50;;;-141.90;100.00
5298;BME280;14738;42.668;23.250;2024-03-06T06:18:29;48485.59;;;-141.90;100.00
5298;BME280;14738;42.668;23.250;2024-03-06T06:20:54;48485.59;;;-141.90;100.00
5298;BME280;14738;42.668;23.250;2024-03-06T06:23:19;48489.56;;;-141.90;100.00
5298;BME280;14738;42.668;23.250;2024-03-06T06:25:45;48481.63;;;-141.90;100.00
5298;BME280;14738;42.668;23.250;2024-03-06T06:28:11;48503.47;;;-141.90;100.00
5298;BME280;14738;42.668;23.250;2024-03-06T06:30:36;48465.75;;;-141.90;100.00
5298;BME280;14738;42.668;23.250;2024-03-06T06:33:03;48445.88;;;-141.90;100.00
5298;BME280;14738;42.668;23.250;2024-03-06T06:35:29;48481.63;;;-141.90;100.00
5298;BME280;14738;42.668;23.250;2024-03-06T06:37:55;48483.59;;;-141.90;100.00
5298;BME280;14738;42.668;23.250;2024-03-06T06:40:20;48449.84;;;-141.90;100.00
5298;BME280;14738;42.668;23.250;2024-03-06T06:42:47;48453.81;;;-141.90;100.00
5298;BME280;14738;42.668;23.250;2024-03-06T06:45:15;48461.78;;;-141.90;100.00
5298;BME280;14738;42.668;23.250;2024-03-06T06:47:41;48477.66;;;-141.90;100.00
5298;BME280;14738;42.668;23.250;2024-03-06T06:50:06;48453.81;;;-141.90;100.00
5298;BME280;14738;42.668;23.250;2024-03-06T06:52:34;48465.75;;;-141.90;100.00
5298;BME280;14738;42.668;23.250;2024-03-06T06:55:00;48465.75;;;-141.90;100.00
5298;BME280;14738;42.668;23.250;2024-03-06T06:57:25;48449.84;;;-141.90;48.54
5298;BME280;14738;42.668;23.250;2024-03-06T06:59:51;48457.81;;;-141.90;49.26
5298;BME280;14738;42.668;23.250;2024-03-06T07:02:17;48457.81;;;-141.90;49.56
5298;BME280;14738;42.668;23.250;2024-03-06T07:04:43;48459.78;;;-141.90;49.18
5298;BME280;14738;42.668;23.250;2024-03-06T07:07:08;48445.88;;;-141.90;49.92
5298;BME280;14738;42.668;23.250;2024-03-06T07:09:34;48497.50;;;-141.90;51.01
5298;BME280;14738;42.668;23.250;2024-03-06T07:12:00;48443.91;;;-141.90;51.38
5298;BME280;14738;42.668;23.250;2024-03-06T07:14:25;48485.59;;;-141.90;52.81
5298;BME280;14738;42.668;23.250;2024-03-06T07:16:50;48453.81;;;-141.90;53.36
5298;BME280;14738;42.668;23.250;2024-03-06T07:19:16;48457.81;;;-141.90;53.65
5298;BME280;14738;42.668;23.250;2024-03-06T07:21:42;48439.94;;;-141.90;53.93
5298;BME280;14738;42.668;23.250;2024-03-06T07:24:07;48465.75;;;-141.90;53.22
5298;BME280;14738;42.668;23.250;2024-03-06T07:26:34;48465.75;;;-141.90;52.41
5298;BME280;14738;42.668;23.250;2024-03-06T07:28:59;48467.72;;;-141.90;52.26
5298;BME280;14738;42.668;23.250;2024-03-06T07:31:25;48459.78;;;-141.90;52.31
5298;BME280;14738;42.668;23.250;2024-03-06T07:33:51;48461.78;;;-141.90;52.87
5298;BME280;14738;42.668;23.250;2024-03-06T07:36:16;48441.91;;;-141.90;52.63
5298;BME280;14738;42.668;23.250;2024-03-06T07:38:42;48439.94;;;-141.90;51.03
5298;BME280;14738;42.668;23.250;2024-03-06T07:41:08;48461.78;;;-141.90;50.99
5298;BME280;14738;42.668;23.250;2024-03-06T07:43:33;48453.81;;;-141.90;51.35
5298;BME280;14738;42.668;23.250;2024-03-06T07:45:59;48449.84;;;-141.90;51.23
5298;BME280;14738;42.668;23.250;2024-03-06T07:48:25;48449.84;;;-141.90;49.80
5298;BME280;14738;42.668;23.250;2024-03-06T07:50:50;48455.81;;;-141.90;50.86
5298;BME280;14738;42.668;23.250;2024-03-06T07:53:16;48453.81;;;-141.90;50.39
5298;BME280;14738;42.668;23.250;2024-03-06T07:55:41;48473.69;;;-141.90;50.76
5298;BME280;14738;42.668;23.250;2024-03-06T07:58:07;48449.84;;;-141.90;49.58
5298;BME280;14738;42.668;23.250;2024-03-06T08:00:35;48465.75;;;-141.90;49.36
5298;BME280;14738;42.668;23.250;2024-03-06T08:03:01;48473.69;;;-141.90;50.04
5298;BME280;14738;42.668;23.250;2024-03-06T08:05:28;48461.78;;;-141.90;50.77
5298;BME280;14738;42.668;23.250;2024-03-06T08:07:53;48473.69;;;-141.90;50.74
5298;BME280;14738;42.668;23.250;2024-03-06T08:10:19;48443.91;;;-141.90;51.19
5298;BME280;14738;42.668;23.250;2024-03-06T08:12:45;48443.91;;;-141.90;51.65
5298;BME280;14738;42.668;23.250;2024-03-06T08:15:13;48467.72;;;-141.90;50.99
5298;BME280;14738;42.668;23.250;2024-03-06T08:17:41;48453.81;;;-141.90;50.91
5298;BME280;14738;42.668;23.250;2024-03-06T08:20:08;48457.81;;;-141.90;50.53
5298;BME280;14738;42.668;23.250;2024-03-06T08:22:38;48445.88;;;-141.90;50.11
5298;BME280;14738;42.668;23.250;2024-03-06T08:25:08;48461.78;;;-141.90;50.52
5298;BME280;14738;42.668;23.250;2024-03-06T08:27:34;48469.72;;;-141.90;51.56
5298;BME280;14738;42.668;23.250;2024-03-06T08:30:00;48455.81;;;-141.90;51.38
5298;BME280;14738;42.668;23.250;2024-03-06T08:32:25;48445.88;;;-141.90;49.52
5298;BME280;14738;42.668;23.250;2024-03-06T08:34:51;48451.84;;;-141.90;49.02
5298;BME280;14738;42.668;23.250;2024-03-06T08:37:16;48451.84;;;-141.90;48.88
5298;BME280;14738;42.668;23.250;2024-03-06T08:39:41;48459.78;;;-141.90;47.96
5298;BME280;14738;42.668;23.250;2024-03-06T08:42:07;48432.00;;;-141.90;47.47
5298;BME280;14738;42.668;23.250;2024-03-06T08:44:33;48453.81;;;-141.90;48.01
5298;BME280;14738;42.668;23.250;2024-03-06T08:46:59;48410.16;;;-141.90;48.20
5298;BME280;14738;42.668;23.250;2024-03-06T08:49:24;48461.78;;;-141.90;47.59
5298;BME280;14738;42.668;23.250;2024-03-06T08:51:50;48469.72;;;-141.90;47.16
5298;BME280;14738;42.668;23.250;2024-03-06T08:54:15;48465.75;;;-141.90;47.88
5298;BME280;14738;42.668;23.250;2024-03-06T08:56:43;48463.75;;;-141.90;48.67
5298;BME280;14738;42.668;23.250;2024-03-06T08:59:09;48439.94;;;-141.90;48.41
5298;BME280;14738;42.668;23.250;2024-03-06T09:01:34;48453.81;;;-141.90;47.90
5298;BME280;14738;42.668;23.250;2024-03-06T09:04:00;48418.09;;;-141.90;47.32
5298;BME280;14738;42.668;23.250;2024-03-06T09:06:25;48465.75;;;-141.90;47.17
5298;BME280;14738;42.668;23.250;2024-03-06T09:08:50;48430.00;;;-141.90;45.86
5298;BME280;14738;42.668;23.250;2024-03-06T09:11:17;48418.09;;;-141.90;47.04
5298;BME280;14738;42.668;23.250;2024-03-06T09:13:42;48418.09;;;-141.90;46.37
5298;BME280;14738;42.668;23.250;2024-03-06T09:16:08;48433.97;;;-141.90;46.62
5298;BME280;14738;42.668;23.250;2024-03-06T09:18:34;48449.84;;;-141.90;46.77
5298;BME280;14738;42.668;23.250;2024-03-06T09:20:59;48463.75;;;-141.90;45.78
5298;BME280;14738;42.668;23.250;2024-03-06T09:23:25;48473.69;;;-141.90;45.49
5298;BME280;14738;42.668;23.250;2024-03-06T09:25:51;48451.84;;;-141.90;45.65
5298;BME280;14738;42.668;23.250;2024-03-06T09:28:17;48451.84;;;-141.90;44.49
5298;BME280;14738;42.668;23.250;2024-03-06T09:30:42;48420.09;;;-141.90;43.69
5298;BME280;14738;42.668;23.250;2024-03-06T09:33:07;48485.59;;;-141.90;43.76
5298;BME280;14738;42.668;23.250;2024-03-06T09:35:33;48449.84;;;-141.90;44.37
5298;BME280;14738;42.668;23.250;2024-03-06T09:37:59;48441.91;;;-141.90;45.81
5298;BME280;14738;42.668;23.250;2024-03-06T09:40:26;48445.88;;;-141.90;45.04
5298;BME280;14738;42.668;23.250;2024-03-06T09:42:52;48457.81;;;-141.90;44.85
5298;BME280;14738;42.668;23.250;2024-03-06T09:45:18;48439.94;;;-141.90;45.03
5298;BME280;14738;42.668;23.250;2024-03-06T09:47:46;48437.94;;;-141.90;45.01
5298;BME280;14738;42.668;23.250;2024-03-06T09:50:16;48485.59;;;-141.90;44.88
5298;BME280;14738;42.668;23.250;2024-03-06T09:52:42;48451.84;;;-141.90;45.23
5298;BME280;14738;42.668;23.250;2024-03-06T09:55:11;48433.97;;;-141.90;45.18
5298;BME280;14738;42.668;23.250;2024-03-06T09:57:37;48441.91;;;-141.90;46.09
5298;BME280;14738;42.668;23.250;2024-03-06T10:00:04;48426.03;;;-141.90;46.43
5298;BME280;14738;42.668;23.250;2024-03-06T10:02:37;48433.97;;;-141.90;44.81
5298;BME280;14738;42.668;23.250;2024-03-06T10:05:04;48453.81;;;-141.90;44.71
5298;BME280;14738;42.668;23.250;2024-03-06T10:07:31;48461.78;;;-141.90;43.93
5298;BME280;14738;42.668;23.250;2024-03-06T10:09:56;48437.94;;;-141.90;43.96
5298;BME280;14738;42.668;23.250;2024-03-06T10:12:22;48455.81;;;-141.90;44.39
5298;BME280;14738;42.668;23.250;2024-03-06T10:14:51;48408.16;;;-141.90;42.98
5298;BME280;14738;42.668;23.250;2024-03-06T10:17:20;48422.06;;;-141.90;42.71
5298;BME280;14738;42.668;23.250;2024-03-06T10:19:49;48445.88;;;-141.90;42.73
5298;BME280;14738;42.668;23.250;2024-03-06T10:22:18;48463.75;;;-141.90;41.91
5298;BME280;14738;42.668;23.250;2024-03-06T10:24:45;48465.75;;;-141.90;41.33
5298;BME280;14738;42.668;23.250;2024-03-06T10:27:17;48453.81;;;-141.90;40.74
5298;BME280;14738;42.668;23.250;2024-03-06T10:29:43;48441.91;;;-141.90;40.85
5298;BME280;14738;42.668;23.250;2024-03-06T10:32:08;48443.91;;;-141.90;40.32
5298;BME280;14738;42.668;23.250;2024-03-06T10:34:33;48449.84;;;-141.90;39.97
5298;BME280;14738;42.668;23.250;2024-03-06T10:37:01;48453.81;;;-141.90;40.30
5298;BME280;14738;42.668;23.250;2024-03-06T10:39:30;48430.00;;;-141.90;38.15
5298;BME280;14738;42.668;23.250;2024-03-06T10:41:56;48426.03;;;-141.90;37.78
5298;BME280;14738;42.668;23.250;2024-03-06T10:44:26;48449.84;;;-141.90;37.96
5298;BME280;14738;42.668;23.250;2024-03-06T10:47:02;48418.09;;;-141.90;37.93
5298;BME280;14738;42.668;23.250;2024-03-06T10:49:29;48420.09;;;-141.90;37.79
5298;BME280;14738;42.668;23.250;2024-03-06T10:51:59;48445.88;;;-141.90;36.96
5298;BME280;14738;42.668;23.250;2024-03-06T10:54:29;48471.69;;;-141.90;35.91
5298;BME280;14738;42.668;23.250;2024-03-06T10:57:00;48430.00;;;-141.90;36.30
5298;BME280;14738;42.668;23.250;2024-03-06T10:59:27;48445.88;;;-141.90;37.71
5298;BME280;14738;42.668;23.250;2024-03-06T11:01:55;48420.09;;;-141.90;36.80
5298;BME280;14738;42.668;23.250;2024-03-06T11:04:26;48424.06;;;-141.90;36.52
5298;BME280;14738;42.668;23.250;2024-03-06T11:06:56;48445.88;;;-141.90;36.28
5298;BME280;14738;42.668;23.250;2024-03-06T11:09:25;48469.72;;;-141.90;36.27
5298;BME280;14738;42.668;23.250;2024-03-06T11:11:51;48437.94;;;-141.90;36.19
5298;BME280;14738;42.668;23.250;2024-03-06T11:14:18;48398.25;;;-141.90;36.71
5298;BME280;14738;42.668;23.250;2024-03-06T11:17:04;48449.84;;;-141.90;37.05
5298;BME280;14738;42.668;23.250;2024-03-06T11:28:16;48455.81;;;-141.90;35.21
5298;BME280;14738;42.668;23.250;2024-03-06T11:31:06;48473.69;;;-141.90;34.85
5298;BME280;14738;42.668;23.250;2024-03-06T11:33:47;48449.84;;;-141.90;34.98
5298;BME280;14738;42.668;23.250;2024-03-06T11:36:22;48437.94;;;-141.90;35.49
5298;BME280;14738;42.668;23.250;2024-03-06T11:38:51;48424.06;;;-141.90;34.10
5298;BME280;14738;42.668;23.250;2024-03-06T11:41:19;48453.81;;;-141.90;35.11
5298;BME280;14738;42.668;23.250;2024-03-06T11:43:44;48451.84;;;-141.90;34.54
5298;BME280;14738;42.668;23.250;2024-03-06T11:46:11;48457.81;;;-141.90;34.39
5298;BME280;14738;42.668;23.250;2024-03-06T11:48:37;48432.00;;;-141.90;34.64
5298;BME280;14738;42.668;23.250;2024-03-06T11:51:02;48469.72;;;-141.90;34.96
5298;BME280;14738;42.668;23.250;2024-03-06T11:53:33;48441.91;;;-141.90;34.33
5298;BME280;14738;42.668;23.250;2024-03-06T11:55:59;48449.84;;;-141.90;33.62
5298;BME280;14738;42.668;23.250;2024-03-06T11:58:24;48453.81;;;-141.90;33.70
5298;BME280;14738;42.668;23.250;2024-03-06T12:00:51;48457.81;;;-141.90;33.11
5298;BME280;14738;42.668;23.250;2024-03-06T12:03:17;48479.63;;;-141.90;31.43
5298;BME280;14738;42.668;23.250;2024-03-06T12:05:44;48441.91;;;-141.90;31.21
5298;BME280;14738;42.668;23.250;2024-03-06T12:08:09;48437.94;;;-141.90;31.07
5298;BME280;14738;42.668;23.250;2024-03-06T12:10:38;48487.56;;;-141.90;31.29
5298;BME280;14738;42.668;23.250;2024-03-06T12:13:04;48473.69;;;-141.90;30.65
5298;BME280;14738;42.668;23.250;2024-03-06T12:15:30;48457.81;;;-141.90;29.88
5298;BME280;14738;42.668;23.250;2024-03-06T12:17:56;48441.91;;;-141.90;30.29
5298;BME280;14738;42.668;23.250;2024-03-06T12:20:21;48433.97;;;-141.90;29.95
5298;BME280;14738;42.668;23.250;2024-03-06T12:22:54;48449.84;;;-141.90;30.78
5298;BME280;14738;42.668;23.250;2024-03-06T12:25:26;48449.84;;;-141.90;30.26
5298;BME280;14738;42.668;23.250;2024-03-06T12:27:53;48437.94;;;-141.90;29.66
5298;BME280;14738;42.668;23.250;2024-03-06T12:30:20;48449.84;;;-141.90;29.72
5298;BME280;14738;42.668;23.250;2024-03-06T12:33:02;48463.75;;;-141.90;29.67
5298;BME280;14738;42.668;23.250;2024-03-06T12:35:32;48457.81;;;-141.90;29.71
5298;BME280;14738;42.668;23.250;2024-03-06T12:37:58;48445.88;;;-141.90;29.61
5298;BME280;14738;42.668;23.250;2024-03-06T12:40:23;48459.78;;;-141.90;29.91